Time;durP1;ratioP1;P1;durP2;ratioP2;P2;SDS_P1;SDS_P2;PMS_P1;PMS_P2;Temp;Humidity;BMP_temperature;BMP_pressure;BME280_temperature;BME280_humidity;BME280_pressure;Samples;Min_cycle;Max_cycle;Signal;HPM_P1;HPM_P2
2022/06/24 00:00:05;;;;;;;365.35;208.10;;;20.90;1.00;;;;;;5004761;28;20285;-50
2022/06/24 00:02:31;;;;;;;381.15;215.45;;;20.90;1.00;;;;;;5000216;28;20227;-50
2022/06/24 00:04:59;;;;;;;462.17;234.40;;;20.90;76.00;;;;;;4992666;28;20589;-50
2022/06/24 00:07:25;;;;;;;433.35;225.52;;;21.00;1.00;;;;;;5000433;28;20181;-50
2022/06/24 00:09:51;;;;;;;369.73;204.50;;;;;;;;;;4995781;28;20247;-50
2022/06/24 00:12:18;;;;;;;462.70;241.82;;;20.90;99.90;;;;;;4999656;28;20243;-49
2022/06/24 00:14:55;;;;;;;393.02;222.73;;;20.80;1.00;;;;;;5002205;28;20213;-50
2022/06/24 00:17:21;;;;;;;415.10;238.23;;;;;;;;;;5002758;28;20206;-50
2022/06/24 00:20:15;;;;;;;369.63;210.23;;;21.00;99.90;;;;;;4997472;28;20294;-50
2022/06/24 00:22:44;;;;;;;373.95;206.88;;;21.00;52.30;;;;;;4999846;28;20223;-50
2022/06/24 00:25:23;;;;;;;351.00;207.95;;;20.90;99.90;;;;;;4998428;28;20641;-50
2022/06/24 00:28:04;;;;;;;342.17;201.35;;;20.90;99.90;;;;;;5004186;28;20208;-50
2022/06/24 00:30:39;;;;;;;377.42;215.15;;;20.90;99.90;;;;;;4996870;28;20223;-50
2022/06/24 00:33:08;;;;;;;350.38;203.68;;;20.90;18.20;;;;;;4996488;28;20232;-50
2022/06/24 00:35:44;;;;;;;442.58;228.63;;;20.90;99.90;;;;;;4999837;28;20255;-50
2022/06/24 00:38:30;;;;;;;372.35;205.63;;;20.90;99.90;;;;;;5002571;28;20223;-50
2022/06/24 00:40:56;;;;;;;350.25;208.82;;;;;;;;;;5003725;28;20697;-50
2022/06/24 00:43:29;;;;;;;447.40;242.20;;;20.80;99.90;;;;;;5005132;28;20185;-50
2022/06/24 00:46:00;;;;;;;350.65;200.18;;;20.90;99.90;;;;;;5006461;28;20251;-50
2022/06/24 00:48:27;;;;;;;411.50;231.27;;;21.00;1.00;;;;;;5006236;28;20306;-50
2022/06/24 00:50:53;;;;;;;407.15;221.60;;;20.80;99.90;;;;;;5007038;28;20232;-50
2022/06/24 00:53:19;;;;;;;379.67;208.45;;;;;;;;;;5006419;28;20204;-50
2022/06/24 00:55:46;;;;;;;337.80;190.05;;;20.60;99.90;;;;;;4992907;28;20216;-50
2022/06/24 00:58:15;;;;;;;406.42;226.60;;;20.80;1.00;;;;;;5006751;28;20209;-50
2022/06/24 01:00:45;;;;;;;411.15;231.18;;;20.70;99.90;;;;;;5005342;28;20259;-50
2022/06/24 01:03:14;;;;;;;400.50;213.85;;;;;;;;;;4997619;28;20213;-50
2022/06/24 01:05:41;;;;;;;404.30;217.68;;;20.50;99.90;;;;;;4998945;28;20858;-50
2022/06/24 01:08:08;;;;;;;383.95;218.82;;;20.50;99.90;;;;;;5000102;28;20223;-50
2022/06/24 01:10:34;;;;;;;434.48;246.73;;;;;;;;;;5003296;28;20184;-50
2022/06/24 01:13:00;;;;;;;385.98;218.32;;;20.50;1.00;;;;;;5004315;28;20300;-50
2022/06/24 01:15:26;;;;;;;372.55;222.90;;;;;;;;;;5002349;28;20212;-49
2022/06/24 01:17:52;;;;;;;381.98;225.45;;;;;;;;;;5007604;28;20712;-50
2022/06/24 01:20:18;;;;;;;339.67;195.55;;;20.40;1.00;;;;;;5010187;28;20207;-50
2022/06/24 01:22:44;;;;;;;459.75;238.45;;;20.40;99.90;;;;;;4994888;28;22072;-50
2022/06/24 01:25:10;;;;;;;390.73;211.57;;;20.50;1.00;;;;;;5003004;28;20537;-50
2022/06/24 01:27:36;;;;;;;369.92;214.65;;;;;;;;;;5009165;28;20724;-50
2022/06/24 01:30:03;;;;;;;358.85;215.10;;;20.30;1.00;;;;;;5005607;28;20775;-50
2022/06/24 01:32:29;;;;;;;369.70;211.52;;;;;;;;;;5004164;28;20221;-50
2022/06/24 01:38:22;;;;;;;491.17;279.90;;;20.10;1.00;;;;;;4965565;28;20312;-51
2022/06/24 01:40:48;;;;;;;403.77;235.48;;;20.30;1.00;;;;;;4997159;28;20220;-51
2022/06/24 01:43:13;;;;;;;431.92;249.18;;;20.30;84.70;;;;;;5021385;23;20295;-53
2022/06/24 01:45:39;;;;;;;399.33;232.30;;;;;;;;;;5008052;28;20208;-53
2022/06/24 01:48:05;;;;;;;312.85;194.93;;;;;;;;;;4995762;28;20181;-54
2022/06/24 01:50:31;;;;;;;366.90;214.88;;;19.80;99.90;;;;;;4979177;28;20192;-53
2022/06/24 01:52:56;;;;;;;374.50;220.55;;;20.10;99.90;;;;;;4989000;28;20205;-54
2022/06/24 01:55:22;;;;;;;415.23;241.32;;;;;;;;;;4983779;28;20247;-54
2022/06/24 01:57:48;;;;;;;377.40;221.57;;;;;;;;;;4992912;28;20541;-54
2022/06/24 02:00:15;;;;;;;396.92;231.88;;;15.90;99.90;;;;;;4992908;28;20534;-53
2022/06/24 02:02:40;;;;;;;306.40;184.68;;;19.80;99.90;;;;;;4992001;28;20239;-54
2022/06/24 02:05:07;;;;;;;327.88;198.43;;;19.60;1.00;;;;;;5002752;28;20193;-54
2022/06/24 02:07:33;;;;;;;323.08;198.32;;;;;;;;;;4982344;28;20235;-54
2022/06/24 02:15:27;;;;;;;333.23;191.32;;;;;;;;;;4995510;28;20261;-54
2022/06/24 02:17:53;;;;;;;374.25;213.05;;;;;;;;;;4992635;28;20185;-54
2022/06/24 02:20:19;;;;;;;362.17;209.90;;;;;;;;;;4999013;28;20209;-54
2022/06/24 02:22:45;;;;;;;313.60;189.52;;;19.30;1.00;;;;;;4998386;28;20224;-54
2022/06/24 02:25:11;;;;;;;347.50;212.07;;;;;;;;;;4987469;28;20235;-54
2022/06/24 02:27:37;;;;;;;359.33;203.23;;;;;;;;;;4990952;28;20181;-54
2022/06/24 02:30:03;;;;;;;353.30;208.27;;;19.30;1.00;;;;;;4983721;28;20271;-54
2022/06/24 02:32:29;;;;;;;325.77;203.48;;;19.30;99.90;;;;;;5002224;28;20333;-54
2022/06/24 02:34:54;;;;;;;332.83;195.07;;;19.10;99.90;;;;;;4997951;28;20185;-54
2022/06/24 02:37:20;;;;;;;304.80;179.45;;;19.30;99.90;;;;;;4999664;28;20187;-53
2022/06/24 02:39:45;;;;;;;291.83;172.35;;;19.20;99.90;;;;;;4993361;28;20181;-53
2022/06/24 02:42:11;;;;;;;340.65;194.23;;;19.40;99.90;;;;;;5004682;28;20195;-54
2022/06/24 02:44:37;;;;;;;477.77;260.27;;;;;;;;;;4990539;28;20211;-54
2022/06/24 02:47:03;;;;;;;317.25;193.60;;;;;;;;;;4992913;28;20197;-53
2022/06/24 02:49:28;;;;;;;353.92;199.88;;;;;;;;;;4996876;28;20193;-54
2022/06/24 02:51:54;;;;;;;315.10;187.38;;;19.20;1.00;;;;;;4994310;28;20708;-54
2022/06/24 02:54:19;;;;;;;373.08;207.05;;;19.40;1.00;;;;;;4987050;28;20260;-54
2022/06/24 02:56:45;;;;;;;323.90;193.57;;;;;;;;;;4991309;28;20223;-54
2022/06/24 02:59:11;;;;;;;307.60;184.45;;;;;;;;;;4989598;28;20331;-54
2022/06/24 03:01:37;;;;;;;337.88;202.55;;;;;;;;;;4994350;28;20181;-54
2022/06/24 03:04:03;;;;;;;372.40;218.82;;;19.00;99.90;;;;;;4989952;28;20781;-53
2022/06/24 03:06:28;;;;;;;378.73;218.10;;;19.00;99.90;;;;;;4987888;28;20205;-54
2022/06/24 03:08:54;;;;;;;389.20;224.55;;;;;;;;;;4987512;28;20502;-54
2022/06/24 03:11:20;;;;;;;339.70;197.70;;;19.10;1.00;;;;;;4990010;28;20215;-54
2022/06/24 03:13:45;;;;;;;404.38;234.00;;;19.30;1.00;;;;;;4992005;28;20645;-53
2022/06/24 03:16:11;;;;;;;294.52;174.52;;;19.20;1.00;;;;;;4998034;28;20212;-54
2022/06/24 03:18:36;;;;;;;362.75;204.63;;;19.10;1.00;;;;;;4987892;28;20550;-54
2022/06/24 03:21:03;;;;;;;309.35;182.60;;;;;;;;;;4988571;28;20231;-54
2022/06/24 03:23:29;;;;;;;381.02;220.32;;;19.20;99.90;;;;;;4996489;28;20178;-54
2022/06/24 03:25:55;;;;;;;310.83;178.93;;;;;;;;;;4994969;28;20197;-54
2022/06/24 03:28:21;;;;;;;394.05;215.38;;;;;;;;;;4992557;28;20185;-54
2022/06/24 03:30:47;;;;;;;301.70;174.10;;;;;;;;;;4991718;28;20479;-53
2022/06/24 03:33:13;;;;;;;342.20;197.30;;;;;;;;;;4993521;28;20711;-54
2022/06/24 03:35:39;;;;;;;318.55;185.32;;;;;;;;;;4999729;28;20304;-53
2022/06/24 03:38:05;;;;;;;279.58;166.27;;;19.20;1.00;;;;;;4997915;28;20450;-53
2022/06/24 03:40:31;;;;;;;369.38;208.30;;;;;;;;;;4986650;28;20235;-54
2022/06/24 03:42:56;;;;;;;327.02;186.45;;;19.10;1.00;;;;;;4989416;28;20262;-54
2022/06/24 03:45:22;;;;;;;325.23;182.95;;;;;;;;;;4988664;28;20541;-53
2022/06/24 03:47:48;;;;;;;310.20;179.05;;;;;;;;;;4998839;28;20188;-54
2022/06/24 03:50:15;;;;;;;340.38;192.23;;;;;;;;;;4987292;28;20252;-54
2022/06/24 03:52:40;;;;;;;313.70;184.75;;;19.00;99.90;;;;;;4994043;28;20204;-54
2022/06/24 03:55:06;;;;;;;307.80;177.10;;;;;;;;;;4991808;28;20208;-54
2022/06/24 03:57:32;;;;;;;359.55;204.93;;;;;;;;;;4999134;28;20204;-54
2022/06/24 03:59:58;;;;;;;292.48;175.88;;;19.40;1.00;;;;;;4988156;28;20240;-54
2022/06/24 04:02:23;;;;;;;359.35;204.93;;;19.30;99.90;;;;;;4995761;28;20185;-54
2022/06/24 04:04:49;;;;;;;328.73;199.98;;;19.20;99.90;;;;;;4995858;28;20268;-54
2022/06/24 04:07:15;;;;;;;331.13;197.55;;;;;;;;;;4990843;28;20196;-54
2022/06/24 04:09:41;;;;;;;349.30;200.00;;;;;;;;;;4984674;28;20177;-54
2022/06/24 04:12:07;;;;;;;341.45;206.27;;;19.40;1.00;;;;;;4991599;28;20209;-53
2022/06/24 04:17:17;;;;;;;353.98;208.05;;;;;;;;;;4985578;28;20611;-54
2022/06/24 04:19:43;;;;;;;338.63;205.10;;;19.60;99.60;;;;;;4986084;28;20399;-53
2022/06/24 04:22:08;;;;;;;386.63;225.25;;;19.50;29.50;;;;;;4990243;28;20311;-54
2022/06/24 04:24:34;;;;;;;322.45;197.95;;;;;;;;;;4995668;28;20188;-53
2022/06/24 04:27:00;;;;;;;320.73;198.60;;;19.60;99.90;;;;;;4998447;28;20228;-54
2022/06/24 04:29:25;;;;;;;350.77;210.07;;;19.80;26.50;;;;;;4993275;28;20200;-54
2022/06/24 04:31:51;;;;;;;337.33;208.13;;;;;;;;;;5000267;28;20657;-54
2022/06/24 04:34:17;;;;;;;313.27;186.77;;;19.80;1.00;;;;;;5002322;28;20672;-54
2022/06/24 04:36:43;;;;;;;306.80;193.25;;;;;;;;;;5001676;28;20223;-54
2022/06/24 04:39:08;;;;;;;331.67;199.48;;;;;;;;;;4999293;28;20182;-54
2022/06/24 04:41:34;;;;;;;338.55;209.15;;;20.10;99.90;;;;;;4984508;28;20534;-54
2022/06/24 04:43:59;;;;;;;366.08;217.10;;;19.80;99.90;;;;;;4992654;28;20205;-54
2022/06/24 04:46:25;;;;;;;362.13;211.48;;;19.90;1.00;;;;;;4992939;28;20217;-54
2022/06/24 04:48:50;;;;;;;321.40;194.77;;;20.20;1.00;;;;;;5001680;28;20665;-53
2022/06/24 04:51:16;;;;;;;307.45;193.55;;;20.10;99.90;;;;;;5002594;28;20255;-53
2022/06/24 04:53:42;;;;;;;320.58;196.20;;;;;;;;;;5001713;28;20197;-54
2022/06/24 04:56:08;;;;;;;331.88;205.38;;;;;;;;;;4996034;28;20291;-54
2022/06/24 04:58:34;;;;;;;335.80;210.55;;;;;;;;;;4999776;28;20177;-54
2022/06/24 05:01:00;;;;;;;326.98;201.85;;;;;;;;;;4988073;28;20577;-54
2022/06/24 05:03:25;;;;;;;358.77;212.70;;;20.00;99.90;;;;;;5002097;28;20188;-54
2022/06/24 05:05:51;;;;;;;317.35;198.80;;;20.20;1.00;;;;;;5002005;28;20253;-54
2022/06/24 05:08:16;;;;;;;308.98;192.80;;;20.30;1.00;;;;;;5002510;28;20725;-54
2022/06/24 05:10:42;;;;;;;307.98;195.32;;;;;;;;;;5002149;28;20657;-54
2022/06/24 05:13:09;;;;;;;315.35;190.20;;;20.20;1.00;;;;;;5003149;28;20236;-53
2022/06/24 05:15:35;;;;;;;377.08;221.57;;;20.30;99.90;;;;;;4999067;28;20294;-54
2022/06/24 05:18:00;;;;;;;317.08;198.38;;;20.60;99.90;;;;;;5004485;28;20195;-53
2022/06/24 05:20:26;;;;;;;359.08;213.30;;;20.50;99.90;;;;;;5000708;28;21188;-54
2022/06/24 05:22:51;;;;;;;307.05;196.82;;;20.60;99.90;;;;;;5002557;28;20192;-56
2022/06/24 05:25:17;;;;;;;340.02;206.13;;;20.40;1.00;;;;;;5000125;28;20201;-56
2022/06/24 05:27:42;;;;;;;332.08;207.07;;;20.80;1.00;;;;;;5004018;28;20197;-57
2022/06/24 05:30:10;;;;;;;358.33;218.65;;;;;;;;;;5000397;28;20701;-56
2022/06/24 05:32:36;;;;;;;412.13;231.20;;;;;;;;;;4966125;28;20279;-56
2022/06/24 05:35:01;;;;;;;328.17;204.15;;;20.60;1.00;;;;;;4995318;28;20224;-56
2022/06/24 05:37:27;;;;;;;363.23;209.93;;;;;;;;;;5005196;28;20177;-56
2022/06/24 05:39:53;;;;;;;404.92;226.77;;;;;;;;;;5001586;28;20197;-56
2022/06/24 05:42:19;;;;;;;466.48;254.80;;;20.90;1.00;;;;;;4965186;28;20224;-56
2022/06/24 05:44:44;;;;;;;539.13;269.20;;;21.00;1.00;;;;;;4982741;28;20192;-55
2022/06/24 05:47:10;;;;;;;392.02;224.88;;;;;;;;;;4988281;28;20223;-54
2022/06/24 05:49:36;;;;;;;398.25;238.02;;;;;;;;;;4989924;28;20224;-55
2022/06/24 05:52:02;;;;;;;391.33;236.55;;;;;;;;;;4982420;28;20227;-55
2022/06/24 05:57:12;;;;;;;394.33;229.85;;;;;;;;;;4990372;28;20296;-55
2022/06/24 05:59:39;;;;;;;399.85;235.77;;;;;;;;;;4991524;28;20287;-55
2022/06/24 06:02:07;;;;;;;379.25;226.95;;;21.90;1.00;;;;;;4993279;28;20568;-55
2022/06/24 06:04:34;;;;;;;380.45;223.88;;;21.90;99.90;;;;;;4998953;28;20238;-55
2022/06/24 06:06:59;;;;;;;412.83;246.02;;;22.10;78.30;;;;;;4995556;28;20298;-55
2022/06/24 06:09:25;;;;;;;411.67;238.55;;;21.90;1.00;;;;;;4991268;28;20706;-55
2022/06/24 06:11:50;;;;;;;409.42;244.63;;;22.10;1.00;;;;;;4994453;28;20656;-57
2022/06/24 06:14:16;;;;;;;458.30;264.48;;;;;;;;;;4992176;28;20177;-57
2022/06/24 06:16:42;;;;;;;325.73;210.70;;;22.30;1.00;;;;;;4996381;28;20279;-53
2022/06/24 06:19:08;;;;;;;352.42;218.77;;;;;;;;;;5002849;28;20319;-54
2022/06/24 06:21:34;;;;;;;346.48;215.63;;;;;;;;;;5010959;28;20197;-59
2022/06/24 06:23:59;;;;;;;403.42;243.02;;;22.90;99.90;;;;;;4994361;28;20322;-58
2022/06/24 06:26:25;;;;;;;381.95;235.88;;;22.90;99.90;;;;;;4968396;28;20213;-59
2022/06/24 06:28:50;;;;;;;379.70;233.57;;;23.00;99.90;;;;;;5003498;28;20185;-58
2022/06/24 06:31:16;;;;;;;406.13;243.27;;;23.00;99.90;;;;;;5001157;28;20184;-58
2022/06/24 06:33:41;;;;;;;440.17;256.17;;;23.10;99.90;;;;;;5001072;28;20715;-59
2022/06/24 06:36:09;;;;;;;407.42;235.70;;;23.20;99.90;;;;;;4978961;28;20664;-58
2022/06/24 06:38:35;;;;;;;370.13;226.32;;;23.10;1.00;;;;;;4995096;28;20192;-58
2022/06/24 06:41:01;;;;;;;431.33;255.68;;;23.10;1.00;;;;;;4991029;28;20181;-58
2022/06/24 06:43:27;;;;;;;369.30;231.38;;;23.10;36.90;;;;;;4989503;28;20255;-58
2022/06/24 06:45:53;;;;;;;471.77;281.67;;;23.00;1.00;;;;;;4997530;28;20230;-58
2022/06/24 06:48:20;;;;;;;441.15;261.58;;;23.10;99.90;;;;;;4993697;28;20668;-58
2022/06/24 06:50:45;;;;;;;379.38;238.60;;;23.50;1.00;;;;;;4991010;28;21962;-58
2022/06/24 06:53:11;;;;;;;389.60;236.90;;;23.30;11.40;;;;;;4996663;28;20515;-58
2022/06/24 06:55:37;;;;;;;506.30;290.75;;;;;;;;;;4985186;28;20283;-59
2022/06/24 06:58:03;;;;;;;409.35;253.15;;;;;;;;;;4983147;28;20212;-57
2022/06/24 07:00:29;;;;;;;384.88;245.63;;;23.30;1.00;;;;;;4992212;28;20200;-56
2022/06/24 07:02:55;;;;;;;505.58;274.70;;;;;;;;;;4959616;28;20831;-57
2022/06/24 07:05:20;;;;;;;382.38;236.20;;;23.40;53.50;;;;;;4985939;28;20410;-57
2022/06/24 07:07:46;;;;;;;364.70;234.07;;;23.40;80.70;;;;;;5003471;28;20209;-57
2022/06/24 07:10:11;;;;;;;366.25;236.02;;;23.40;1.00;;;;;;5003343;28;20746;-57
2022/06/24 07:12:37;;;;;;;343.80;209.27;;;23.70;1.00;;;;;;5008420;28;20208;-57
2022/06/24 07:15:03;;;;;;;349.50;217.95;;;23.60;1.00;;;;;;5008016;28;20250;-57
2022/06/24 07:17:28;;;;;;;349.45;223.73;;;23.80;1.00;;;;;;5009137;28;20299;-57
2022/06/24 07:19:54;;;;;;;366.95;218.60;;;23.80;1.00;;;;;;5009370;28;20255;-57
2022/06/24 07:22:19;;;;;;;369.42;235.93;;;24.00;1.00;;;;;;5007377;28;20231;-57
2022/06/24 07:24:45;;;;;;;387.83;243.27;;;;;;;;;;5005793;28;20216;-57
2022/06/24 07:27:11;;;;;;;381.23;243.98;;;24.40;1.00;;;;;;5009186;28;20689;-57
2022/06/24 07:29:37;;;;;;;441.08;268.00;;;;;;;;;;5004894;28;20212;-57
2022/06/24 07:32:04;;;;;;;347.23;228.45;;;24.40;1.00;;;;;;5005993;28;20779;-57
2022/06/24 07:34:31;;;;;;;370.73;230.23;;;24.30;6.90;;;;;;5010011;28;20212;-57
2022/06/24 07:36:57;;;;;;;403.00;255.57;;;24.50;99.90;;;;;;5009442;28;20763;-57
2022/06/24 07:39:23;;;;;;;399.95;249.68;;;24.90;1.00;;;;;;5007394;28;20219;-57
2022/06/24 07:41:49;;;;;;;377.50;248.57;;;;;;;;;;5008286;28;20263;-57
2022/06/24 07:44:15;;;;;;;374.00;234.55;;;24.90;1.00;;;;;;5007763;28;20596;-57
2022/06/24 07:46:41;;;;;;;379.35;249.90;;;;;;;;;;5009022;28;20308;-57
2022/06/24 07:49:06;;;;;;;367.05;242.73;;;25.00;1.00;;;;;;5005607;28;21067;-57
2022/06/24 07:51:32;;;;;;;364.88;242.63;;;24.90;1.00;;;;;;5011591;28;20400;-57
2022/06/24 07:53:58;;;;;;;393.80;263.02;;;;;;;;;;5006497;28;20177;-57
2022/06/24 07:59:08;;;;;;;400.25;250.70;;;;;;;;;;5005388;28;20227;-57
2022/06/24 08:01:34;;;;;;;395.58;260.13;;;25.20;1.00;;;;;;5003430;28;20579;-57
2022/06/24 08:04:00;;;;;;;410.25;265.17;;;25.40;1.00;;;;;;5009661;28;20267;-57
2022/06/24 08:06:26;;;;;;;371.63;255.38;;;25.50;99.90;;;;;;5007232;28;20700;-57
2022/06/24 08:08:52;;;;;;;364.42;243.90;;;;;;;;;;5007196;28;20185;-57
2022/06/24 08:11:18;;;;;;;373.55;249.27;;;;;;;;;;4987435;28;20221;-57
2022/06/24 08:13:44;;;;;;;381.25;255.82;;;25.80;99.90;;;;;;5010313;28;20205;-57
2022/06/24 08:16:09;;;;;;;388.17;260.88;;;26.10;99.90;;;;;;5003315;28;20359;-57
2022/06/24 08:18:35;;;;;;;363.20;246.05;;;;;;;;;;5007572;28;20209;-57
2022/06/24 08:21:01;;;;;;;393.10;264.05;;;;;;;;;;5009337;28;20217;-57
2022/06/24 08:23:26;;;;;;;402.17;255.20;;;26.00;99.90;;;;;;5006353;28;20665;-57
2022/06/24 08:25:52;;;;;;;385.85;250.00;;;26.10;1.00;;;;;;5006077;28;20212;-57
2022/06/24 08:28:17;;;;;;;388.23;252.95;;;26.30;99.90;;;;;;5007262;28;20317;-57
2022/06/24 08:30:44;;;;;;;418.33;275.70;;;;;;;;;;5005554;28;20655;-57
2022/06/24 08:33:10;;;;;;;369.23;253.32;;;26.40;99.90;;;;;;5004068;28;20247;-57
2022/06/24 08:35:36;;;;;;;410.58;278.17;;;;;;;;;;5007948;28;20236;-57
2022/06/24 08:38:01;;;;;;;397.35;275.67;;;26.50;99.90;;;;;;5004399;28;20272;-57
2022/06/24 08:40:28;;;;;;;355.92;231.70;;;26.60;11.10;;;;;;4984367;28;20209;-57
2022/06/24 08:42:55;;;;;;;372.67;239.18;;;26.70;99.90;;;;;;5012003;28;20281;-57
2022/06/24 08:45:22;;;;;;;388.10;247.40;;;26.70;99.90;;;;;;5005100;28;20311;-57
2022/06/24 08:47:48;;;;;;;389.58;258.20;;;26.70;99.90;;;;;;5006478;28;20187;-57
2022/06/24 08:50:16;;;;;;;382.02;254.60;;;26.80;1.00;;;;;;5007960;28;20217;-57
2022/06/24 08:52:51;;;;;;;361.92;249.60;;;26.80;1.00;;;;;;5009708;28;20299;-57
2022/06/24 08:55:18;;;;;;;411.52;267.38;;;26.80;99.90;;;;;;5006858;28;20212;-57
2022/06/24 08:57:46;;;;;;;359.08;248.07;;;26.80;99.90;;;;;;5006888;28;20705;-57
2022/06/24 09:00:12;;;;;;;376.50;249.85;;;26.90;99.90;;;;;;5008672;28;20191;-57
2022/06/24 09:02:38;;;;;;;386.27;264.02;;;27.10;99.90;;;;;;5007804;28;20181;-57
2022/06/24 09:05:12;;;;;;;379.95;253.40;;;27.00;99.90;;;;;;5009883;28;20224;-57
2022/06/24 09:07:38;;;;;;;397.45;262.85;;;;;;;;;;5010324;28;20221;-57
2022/06/24 09:10:10;;;;;;;382.25;252.32;;;27.30;1.00;;;;;;5010520;28;20241;-57
2022/06/24 09:13:02;;;;;;;373.38;252.70;;;27.40;99.90;;;;;;5011650;28;20438;-57
2022/06/24 09:15:28;;;;;;;381.23;252.15;;;27.20;99.90;;;;;;5005261;28;20247;-57
2022/06/24 09:17:54;;;;;;;370.33;250.30;;;27.40;99.90;;;;;;5002480;28;20633;-57
2022/06/24 09:20:22;;;;;;;393.50;260.63;;;27.40;99.90;;;;;;5010618;28;20232;-57
2022/06/24 09:22:49;;;;;;;396.23;269.23;;;27.50;99.90;;;;;;5009393;28;20215;-57
2022/06/24 09:25:15;;;;;;;391.90;263.88;;;27.40;99.90;;;;;;5006443;28;20228;-57
2022/06/24 09:27:46;;;;;;;383.02;260.05;;;27.60;1.00;;;;;;5011489;28;20209;-57
2022/06/24 09:30:17;;;;;;;364.60;255.00;;;27.60;1.00;;;;;;5006586;28;20183;-57
2022/06/24 09:32:53;;;;;;;376.85;255.77;;;27.60;99.90;;;;;;5011672;28;20671;-57
2022/06/24 09:35:24;;;;;;;355.90;248.82;;;27.80;99.90;;;;;;5007314;28;20297;-57
2022/06/24 09:37:51;;;;;;;366.80;252.82;;;27.60;99.90;;;;;;5010172;28;20294;-57
2022/06/24 09:40:25;;;;;;;378.92;261.95;;;27.80;99.90;;;;;;5006915;28;20221;-57
2022/06/24 09:43:05;;;;;;;351.10;246.30;;;27.80;99.90;;;;;;5013468;28;20212;-57
2022/06/24 09:45:51;;;;;;;404.50;272.15;;;28.00;1.00;;;;;;5008768;28;20258;-57
2022/06/24 09:48:32;;;;;;;388.80;269.35;;;28.20;99.90;;;;;;5012436;28;20212;-57
2022/06/24 09:51:06;;;;;;;380.05;261.77;;;28.20;99.90;;;;;;5014087;28;20619;-57
2022/06/24 09:53:37;;;;;;;378.63;267.02;;;28.50;99.90;;;;;;5009311;28;20224;-57
2022/06/24 09:56:04;;;;;;;399.05;277.50;;;28.40;1.00;;;;;;5011310;28;20221;-57
2022/06/24 09:58:30;;;;;;;368.52;259.05;;;28.60;99.90;;;;;;5010519;28;20236;-57
2022/06/24 10:00:56;;;;;;;369.10;261.05;;;;;;;;;;5012145;28;20594;-57
2022/06/24 10:03:22;;;;;;;392.23;272.42;;;28.90;99.90;;;;;;5009188;28;20217;-57
2022/06/24 10:05:49;;;;;;;397.17;275.02;;;28.70;1.00;;;;;;5011102;28;20564;-57
2022/06/24 10:08:20;;;;;;;378.88;267.98;;;28.80;1.00;;;;;;4995738;28;20500;-57
2022/06/24 10:10:50;;;;;;;382.75;275.75;;;28.80;99.90;;;;;;5011395;28;20213;-57
2022/06/24 10:13:24;;;;;;;416.20;291.80;;;29.00;99.90;;;;;;4993695;28;20720;-57
2022/06/24 10:15:51;;;;;;;399.27;286.70;;;29.00;1.00;;;;;;4987793;28;20566;-57
2022/06/24 10:18:19;;;;;;;380.75;276.92;;;29.10;99.90;;;;;;5009231;28;20196;-57
2022/06/24 10:20:46;;;;;;;362.95;274.35;;;29.30;1.00;;;;;;5007452;28;20238;-57
2022/06/24 10:23:40;;;;;;;381.23;286.05;;;29.30;99.90;;;;;;5004555;28;20208;-57
2022/06/24 10:26:13;;;;;;;368.55;277.77;;;29.30;1.00;;;;;;5007691;28;20213;-57
2022/06/24 10:29:00;;;;;;;393.30;292.77;;;29.40;1.00;;;;;;5011169;28;20278;-57
2022/06/24 10:31:44;;;;;;;406.35;290.83;;;29.40;99.90;;;;;;5010728;28;20216;-57
2022/06/24 10:34:20;;;;;;;335.23;263.83;;;29.50;95.20;;;;;;5009499;28;20355;-57
2022/06/24 10:36:47;;;;;;;378.00;279.33;;;29.50;92.00;;;;;;5013276;28;20212;-57
2022/06/24 10:39:15;;;;;;;417.02;292.23;;;29.70;86.30;;;;;;4996022;28;20189;-57
2022/06/24 10:41:41;;;;;;;384.00;280.05;;;29.30;1.00;;;;;;4992780;28;20594;-57
2022/06/24 10:44:22;;;;;;;601.50;366.15;;;29.70;1.00;;;;;;4985368;28;20228;-56
2022/06/24 10:47:08;;;;;;;352.35;271.17;;;29.60;71.20;;;;;;4976999;28;20380;-55
2022/06/24 10:49:52;;;;;;;375.80;280.52;;;29.70;63.90;;;;;;5011504;28;20299;-55
2022/06/24 10:52:47;;;;;;;365.85;277.60;;;30.00;54.90;;;;;;5011312;28;20712;-55
2022/06/24 10:55:20;;;;;;;365.30;285.15;;;29.90;1.00;;;;;;5011568;28;20585;-55
2022/06/24 10:57:48;;;;;;;362.38;281.33;;;30.10;46.60;;;;;;5010218;28;20200;-55
2022/06/24 11:00:21;;;;;;;365.80;286.13;;;29.90;42.10;;;;;;5011498;28;20176;-55
2022/06/24 11:02:51;;;;;;;374.50;283.85;;;30.10;1.00;;;;;;5011891;28;20192;-55
2022/06/24 11:05:22;;;;;;;371.00;288.98;;;30.30;35.10;;;;;;5011086;28;20244;-55
2022/06/24 11:07:51;;;;;;;364.23;288.10;;;30.30;19.70;;;;;;5011165;28;20303;-55
2022/06/24 11:10:21;;;;;;;355.38;277.85;;;30.70;18.90;;;;;;5011258;28;20235;-55
2022/06/24 11:12:56;;;;;;;363.52;292.27;;;30.60;1.00;;;;;;5010734;28;20231;-55
2022/06/24 11:15:56;;;;;;;360.63;296.48;;;30.70;1.00;;;;;;5011223;28;20224;-55
2022/06/24 11:18:24;;;;;;;362.45;294.83;;;30.60;3.70;;;;;;4999983;28;20564;-55
2022/06/24 11:20:59;;;;;;;365.27;295.70;;;30.70;5.00;;;;;;5011773;28;20231;-55
2022/06/24 11:23:26;;;;;;;433.30;329.85;;;30.90;2.90;;;;;;4994933;28;20254;-56
2022/06/24 11:25:57;;;;;;;380.25;310.30;;;31.00;1.00;;;;;;4998373;28;20265;-56
2022/06/24 11:28:32;;;;;;;468.00;345.48;;;30.90;1.00;;;;;;4985944;28;20213;-56
2022/06/24 11:31:17;;;;;;;385.38;318.17;;;30.90;1.00;;;;;;4991094;28;21355;-56
2022/06/24 11:33:44;;;;;;;407.00;325.95;;;30.90;1.00;;;;;;4996421;28;20281;-56
2022/06/24 11:36:10;;;;;;;386.25;322.92;;;31.10;1.00;;;;;;4996180;28;20197;-55
2022/06/24 11:38:55;;;;;;;453.15;352.35;;;31.40;1.00;;;;;;4995565;28;20173;-53
2022/06/24 11:41:31;;;;;;;400.38;339.67;;;31.50;1.00;;;;;;4995349;28;20205;-53
2022/06/24 11:43:57;;;;;;;473.13;358.58;;;;;;;;;;4977866;28;20212;-56
2022/06/24 11:46:23;;;;;;;471.67;352.50;;;;;;;;;;4985151;28;20220;-56
2022/06/24 11:49:02;;;;;;;427.40;354.00;;;31.80;1.00;;;;;;4989570;28;20292;-55
2022/06/24 11:51:28;;;;;;;492.50;371.92;;;;;;;;;;4963260;28;20616;-55
2022/06/24 11:54:02;;;;;;;403.55;341.73;;;31.90;1.00;;;;;;4992114;28;20181;-53
2022/06/24 11:56:31;;;;;;;422.73;358.60;;;32.00;1.00;;;;;;4982752;28;20224;-53
2022/06/24 11:58:58;;;;;;;466.17;356.10;;;32.20;1.00;;;;;;4973514;28;20833;-53
2022/06/24 12:01:25;;;;;;;493.38;386.30;;;32.20;1.00;;;;;;4994310;28;20296;-53
2022/06/24 12:03:53;;;;;;;463.77;354.92;;;32.10;1.00;;;;;;4991300;28;20247;-53
2022/06/24 12:06:19;;;;;;;463.98;345.30;;;32.20;1.00;;;;;;4994913;28;20307;-53
2022/06/24 12:08:46;;;;;;;430.33;334.13;;;32.30;1.00;;;;;;4992396;28;20248;-53
2022/06/24 12:11:16;;;;;;;481.67;352.38;;;32.50;1.00;;;;;;4992510;28;20303;-56
2022/06/24 12:13:54;;;;;;;425.10;337.35;;;32.80;1.00;;;;;;4996168;28;20884;-56
2022/06/24 12:16:19;;;;;;;452.38;349.85;;;33.00;1.00;;;;;;4994849;28;20216;-54
2022/06/24 12:18:45;;;;;;;425.33;343.88;;;;;;;;;;4993326;28;20318;-57
2022/06/24 12:21:11;;;;;;;461.90;367.85;;;33.10;1.00;;;;;;5000708;28;20246;-57
2022/06/24 12:23:38;;;;;;;423.70;344.17;;;33.00;99.90;;;;;;5001153;28;20181;-57
2022/06/24 12:26:20;;;;;;;385.70;332.77;;;33.00;1.00;;;;;;4998490;28;20251;-57
2022/06/24 12:29:04;;;;;;;437.50;352.85;;;33.20;1.00;;;;;;4996681;28;20212;-57
2022/06/24 12:31:31;;;;;;;458.40;373.73;;;33.40;1.00;;;;;;4984695;28;20326;-57
2022/06/24 12:33:58;;;;;;;451.25;368.90;;;33.40;1.00;;;;;;4989180;28;20300;-57
2022/06/24 12:36:41;;;;;;;447.52;359.58;;;33.70;1.00;;;;;;4991760;28;20221;-57
2022/06/24 12:39:09;;;;;;;482.63;381.02;;;33.80;1.00;;;;;;4988745;28;20268;-57
2022/06/24 12:41:46;;;;;;;416.48;356.92;;;33.90;1.00;;;;;;4996147;28;20188;-57
2022/06/24 12:44:12;;;;;;;402.15;342.20;;;33.90;1.00;;;;;;5006301;28;20219;-57
2022/06/24 12:52:37;;;;;;;406.90;349.80;;;33.90;1.00;;;;;;4997570;28;20247;-55
2022/06/24 12:55:05;;;;;;;415.08;363.77;;;34.30;1.00;;;;;;4989292;28;20267;-55
2022/06/24 12:57:31;;;;;;;449.65;370.05;;;34.40;1.00;;;;;;4990400;28;20243;-54
2022/06/24 12:59:56;;;;;;;457.40;376.10;;;;;;;;;;5000982;28;20185;-54
2022/06/24 13:02:22;;;;;;;421.48;354.95;;;34.40;1.00;;;;;;4994333;28;20224;-56
2022/06/24 13:04:48;;;;;;;458.85;382.80;;;34.40;1.00;;;;;;4996653;28;20223;-54